地図

経路データ

SID SEASON NUMBER BASIN SUBBASIN NAME ISO_TIME NATURE LAT LON WMO_WIND WMO_PRES WMO_AGENCY TRACK_TYPE DIST2LAND LANDFALL IFLAG USA_AGENCY USA_ATCF_ID USA_LAT USA_LON USA_RECORD USA_STATUS USA_WIND USA_PRES USA_SSHS USA_R34_NE USA_R34_SE USA_R34_SW USA_R34_NW USA_R50_NE USA_R50_SE USA_R50_SW USA_R50_NW USA_R64_NE USA_R64_SE USA_R64_SW USA_R64_NW USA_POCI USA_ROCI USA_RMW USA_EYE TOKYO_LAT TOKYO_LON TOKYO_GRADE TOKYO_WIND TOKYO_PRES TOKYO_R50_DIR TOKYO_R50_LONG TOKYO_R50_SHORT TOKYO_R30_DIR TOKYO_R30_LONG TOKYO_R30_SHORT TOKYO_LAND CMA_LAT CMA_LON CMA_CAT CMA_WIND CMA_PRES HKO_LAT HKO_LON HKO_CAT HKO_WIND HKO_PRES NEWDELHI_LAT NEWDELHI_LON NEWDELHI_GRADE NEWDELHI_WIND NEWDELHI_PRES NEWDELHI_CI NEWDELHI_DP NEWDELHI_POCI REUNION_LAT REUNION_LON REUNION_TYPE REUNION_WIND REUNION_PRES REUNION_TNUM REUNION_CI REUNION_RMW REUNION_R34_NE REUNION_R34_SE REUNION_R34_SW REUNION_R34_NW REUNION_R50_NE REUNION_R50_SE REUNION_R50_SW REUNION_R50_NW REUNION_R64_NE REUNION_R64_SE REUNION_R64_SW REUNION_R64_NW BOM_LAT BOM_LON BOM_TYPE BOM_WIND BOM_PRES BOM_TNUM BOM_CI BOM_RMW BOM_R34_NE BOM_R34_SE BOM_R34_SW BOM_R34_NW BOM_R50_NE BOM_R50_SE BOM_R50_SW BOM_R50_NW BOM_R64_NE BOM_R64_SE BOM_R64_SW BOM_R64_NW BOM_ROCI BOM_POCI BOM_EYE BOM_POS_METHOD BOM_PRES_METHOD NADI_LAT NADI_LON NADI_CAT NADI_WIND NADI_PRES WELLINGTON_LAT WELLINGTON_LON WELLINGTON_WIND WELLINGTON_PRES DS824_LAT DS824_LON DS824_STAGE DS824_WIND DS824_PRES TD9636_LAT TD9636_LON TD9636_STAGE TD9636_WIND TD9636_PRES TD9635_LAT TD9635_LON TD9635_WIND TD9635_PRES TD9635_ROCI NEUMANN_LAT NEUMANN_LON NEUMANN_CLASS NEUMANN_WIND NEUMANN_PRES MLC_LAT MLC_LON MLC_CLASS MLC_WIND MLC_PRES USA_GUST BOM_GUST BOM_GUST_PER REUNION_GUST REUNION_GUST_PER USA_SEAHGT USA_SEARAD_NE USA_SEARAD_SE USA_SEARAD_SW USA_SEARAD_NW STORM_SPEED STORM_DIR
1921008S12139 1921 1 SP EA NOT_NAMED 1921-01-07 12:00:00 NR -12.2000 139.200 main 239 239 __________O___ -1 -12.2000 139.200 7 0 0
1921008S12139 1921 1 SP EA NOT_NAMED 1921-01-07 15:00:00 NR -12.1795 139.209 main 239 239 __________P___ -1 -12.1795 139.209 7 0 0
1921008S12139 1921 1 SP EA NOT_NAMED 1921-01-07 18:00:00 NR -12.1772 139.185 main 239 228 __________P___ -1 -12.1772 139.185 7 1 254
1921008S12139 1921 1 SP EA NOT_NAMED 1921-01-07 21:00:00 NR -12.2113 139.093 main 228 195 __________P___ -1 -12.2113 139.093 7 5 240
1921008S12139 1921 1 SP EA NOT_NAMED 1921-01-07 23:00:00 NR -12.3706 138.842 bom main 195 185 ______O___P___ -1 -12.8000 138.300 -12.2633 138.978 7 10 238
1921008S12139 1921 1 SP EA NOT_NAMED 1921-01-08 00:00:00 NR -12.4738 138.659 main 186 145 ______P___O___ -1 -12.8214 138.177 -12.3000 138.900 7 10 245
1921008S12139 1921 1 SP EA NOT_NAMED 1921-01-08 03:00:00 NR -12.6398 138.251 main 145 103 ______P___P___ -1 -12.8876 137.806 -12.4540 138.584 7 9 248
1921008S12139 1921 1 SP EA NOT_NAMED 1921-01-08 06:00:00 NR -12.8085 137.799 main 103 73 ______P___P___ -1 -12.9616 137.428 -12.6553 138.170 7 9 249
1921008S12139 1921 1 SP EA NOT_NAMED 1921-01-08 09:00:00 NR -12.9643 137.367 main 75 24 ______P___P___ -1 -13.0497 137.038 -12.8789 137.696 7 9 250
1921008S12139 1921 1 SP EA NOT_NAMED 1921-01-08 12:00:00 NR -13.1290 136.916 main 24 0 ______P___O___ -1 -13.1579 136.631 -13.1000 137.200 7 9 249
1921008S12139 1921 1 SP EA NOT_NAMED 1921-01-08 15:00:00 NR -13.2976 136.456 main 0 0 ______P___P___ -1 -13.2926 136.202 -13.3027 136.711 7 10 249
1921008S12139 1921 1 SP EA NOT_NAMED 1921-01-08 17:00:00 NR -13.4165 136.139 bom main 15 10 ______O___P___ -1 -13.4000 135.900 -13.4330 136.378 7 10 249
1921008S12139 1921 1 SP EA NOT_NAMED 1921-01-08 18:00:00 NR -13.4774 135.979 main 10 0 ______P___P___ -1 -13.4594 135.744 -13.4953 136.213 7 10 249
1921008S12139 1921 1 SP EA NOT_NAMED 1921-01-08 21:00:00 NR -13.6571 135.503 main 0 0 ______P___P___ -1 -13.6489 135.273 -13.6652 135.733 7 10 249
1921008S12139 1921 1 SP EA NOT_NAMED 1921-01-08 23:30:00 NR -13.7903 135.134 bom main 0 0 ______O___P___ -1 -13.8000 134.900 -13.7805 135.368 7 9 250
1921008S12139 1921 1 SP EA NOT_NAMED 1921-01-09 00:00:00 NR -13.8123 135.066 main 0 0 ______P___O___ -1 -13.8246 134.832 -13.8000 135.300 7 8 254
1921008S12139 1921 1 SI WA NOT_NAMED 1921-01-09 03:00:00 NR -13.9148 134.701 main 0 0 ______P___P___ -1 -13.9482 134.465 -13.8815 134.937 7 7 255
1921008S12139 1921 1 SI WA NOT_NAMED 1921-01-09 06:00:00 NR -13.9831 134.389 main 0 0 ______P___P___ -1 -14.0366 134.154 -13.9295 134.625 7 6 258
1921008S12139 1921 1 SI WA NOT_NAMED 1921-01-09 09:00:00 NR -14.0308 134.120 main 0 0 ______P___P___ -1 -14.0987 133.890 -13.9628 134.350 7 5 260
1921008S12139 1921 1 SI WA NOT_NAMED 1921-01-09 12:00:00 NR -14.0714 133.880 main 0 0 ______P___O___ -1 -14.1429 133.660 -14.0000 134.100 7 5 259
1921008S12139 1921 1 SI WA NOT_NAMED 1921-01-09 15:00:00 NR -14.1206 133.660 main 0 0 ______P___P___ -1 -14.1778 133.454 -14.0635 133.866 7 4 256
1921008S12139 1921 1 SI WA NOT_NAMED 1921-01-09 18:00:00 NR -14.1732 133.455 main 0 0 ______P___P___ -1 -14.2118 133.261 -14.1346 133.650 7 4 254
1921008S12139 1921 1 SI WA NOT_NAMED 1921-01-09 21:00:00 NR -14.2335 133.251 main 0 0 ______P___P___ -1 -14.2535 133.068 -14.2135 133.434 7 4 252
1921008S12139 1921 1 SI WA NOT_NAMED 1921-01-09 23:30:00 NR -14.2925 133.071 bom main 0 0 ______O___P___ -1 -14.3000 132.900 -14.2851 133.241 7 5 251
1921008S12139 1921 1 SI WA NOT_NAMED 1921-01-10 00:00:00 NR -14.3068 133.023 main 0 0 ______P___O___ -1 -14.3136 132.846 -14.3000 133.200 7 6 254
1921008S12139 1921 1 SI WA NOT_NAMED 1921-01-10 03:00:00 NR -14.3941 132.709 main 0 0 ______P___P___ -1 -14.3992 132.512 -14.3889 132.905 7 6 254
1921008S12139 1921 1 SI WA NOT_NAMED 1921-01-10 06:00:00 NR -14.4893 132.381 main 0 0 ______P___P___ -1 -14.4934 132.169 -14.4852 132.593 7 7 252
1921008S12139 1921 1 SI WA NOT_NAMED 1921-01-10 09:00:00 NR -14.5933 132.058 main 0 0 ______P___P___ -1 -14.5978 131.833 -14.5889 132.283 7 6 250
1921008S12139 1921 1 SI WA NOT_NAMED 1921-01-10 12:00:00 NR -14.7070 131.760 main 0 0 ______P___O___ -1 -14.7139 131.519 -14.7000 132.000 7 6 247
1921008S12139 1921 1 SI WA NOT_NAMED 1921-01-10 15:00:00 NR -14.8286 131.495 main 0 0 ______P___P___ -1 -14.8435 131.243 -14.8137 131.747 7 5 242
1921008S12139 1921 1 SI WA NOT_NAMED 1921-01-10 18:00:00 NR -14.9617 131.272 main 0 0 ______P___P___ -1 -14.9885 131.020 -14.9349 131.525 7 5 234
1921008S12139 1921 1 SI WA NOT_NAMED 1921-01-10 21:00:00 NR -15.1071 131.103 main 0 0 ______P___P___ -1 -15.1505 130.865 -15.0637 131.341 7 4 223
1921008S12139 1921 1 SI WA NOT_NAMED 1921-01-10 23:30:00 NR -15.2384 131.010 bom main 0 0 ______O___P___ -1 -15.3000 130.800 -15.1768 131.220 7 4 212
1921008S12139 1921 1 SI WA NOT_NAMED 1921-01-11 00:00:00 NR -15.2675 130.998 main 0 0 ______P___O___ -1 -15.3350 130.796 -15.2000 131.200 7 4 194
1921008S12139 1921 1 SI WA NOT_NAMED 1921-01-11 03:00:00 NR -15.4523 130.950 main 0 0 ______P___P___ -1 -15.5579 130.817 -15.3468 131.082 7 4 186
1921008S12139 1921 1 SI WA NOT_NAMED 1921-01-11 06:00:00 NR -15.6446 130.957 main 0 0 ______P___P___ -1 -15.7894 130.904 -15.4999 131.010 7 4 171
1921008S12139 1921 1 SI WA NOT_NAMED 1921-01-11 09:00:00 NR -15.8315 131.010 main 0 0 ______P___P___ -1 -16.0099 131.038 -15.6530 130.983 7 4 159
1921008S12139 1921 1 SI WA NOT_NAMED 1921-01-11 12:00:00 NR -16.0000 131.100 bom main 0 0 ______O___O___ -1 -16.2000 131.200 -15.8000 131.000 7 3 153
1921008S12139 1921 1 SI WA NOT_NAMED 1921-01-11 15:00:00 NR -16.1283 131.167 main 0 0 ______P___P___ -1 -16.3455 131.375 -15.9110 130.960 7 2 150
1921008S12139 1921 1 SI WA NOT_NAMED 1921-01-11 18:00:00 NR -16.2051 131.225 main 0 0 ______P___P___ -1 -16.4540 131.556 -16.0184 130.976 7 2 135
1921008S12139 1921 1 SI WA NOT_NAMED 1921-01-11 21:00:00 NR -16.2740 131.317 main 0 0 ______P___P___ -1 -16.5385 131.743 -16.1417 131.104 7 3 121
1921008S12139 1921 1 SI WA NOT_NAMED 1921-01-11 23:30:00 NR -16.3363 131.449 bom main 0 0 ______O___P___ -1 -16.6000 131.900 -16.2704 131.337 7 2 109
1921008S12139 1921 1 SI WA NOT_NAMED 1921-01-12 00:00:00 NR -16.3000 131.400 main 0 0 __________O___ -1 -16.3000 131.400 7 9 112
1921008S12139 1921 1 SI WA NOT_NAMED 1921-01-12 03:00:00 NR -16.5276 131.935 main 0 0 __________P___ -1 -16.5276 131.935 7 13 112
1921008S12139 1921 1 SI WA NOT_NAMED 1921-01-12 06:00:00 NR -16.7869 132.634 main 0 0 __________P___ -1 -16.7869 132.634 7 15 110
1921008S12139 1921 1 SI WA NOT_NAMED 1921-01-12 09:00:00 NR -17.0525 133.416 main 0 0 __________P___ -1 -17.0525 133.416 7 16 109
1921008S12139 1921 1 SI WA NOT_NAMED 1921-01-12 12:00:00 NR -17.3000 134.200 main 0 0 __________O___ -1 -17.3000 134.200 7 15 108
1921008S12139 1921 1 SI WA NOT_NAMED 1921-01-12 15:00:00 NR -17.4918 134.873 main 0 0 __________P___ -1 -17.4918 134.873 7 13 106
1921008S12139 1921 1 SP EA NOT_NAMED 1921-01-12 18:00:00 NR -17.6641 135.531 main 0 0 __________P___ -1 -17.6641 135.531 7 13 105
1921008S12139 1921 1 SP EA NOT_NAMED 1921-01-12 21:00:00 NR -17.8294 136.173 main 0 0 __________P___ -1 -17.8294 136.173 7 13 106
1921008S12139 1921 1 SP EA NOT_NAMED 1921-01-13 00:00:00 NR -18.0000 136.800 main 0 0 __________O___ -1 -18.0000 136.800 7 12 108
1921008S12139 1921 1 SP EA NOT_NAMED 1921-01-13 03:00:00 NR -18.2084 137.418 main 0 0 __________P___ -1 -18.2084 137.418 7 12 110
1921008S12139 1921 1 SP EA NOT_NAMED 1921-01-13 06:00:00 NR -18.4216 138.022 main 0 0 __________P___ -1 -18.4216 138.022 7 12 110
1921008S12139 1921 1 SP EA NOT_NAMED 1921-01-13 09:00:00 NR -18.6240 138.615 main 0 0 __________P___ -1 -18.6240 138.615 7 12 109
1921008S12139 1921 1 SP EA NOT_NAMED 1921-01-13 12:00:00 NR -18.8000 139.200 main 0 0 __________O___ -1 -18.8000 139.200 7 12 106
1921008S12139 1921 1 SP EA NOT_NAMED 1921-01-13 15:00:00 NR -18.9404 139.787 main 0 0 __________P___ -1 -18.9404 139.787 7 11 103
1921008S12139 1921 1 SP EA NOT_NAMED 1921-01-13 18:00:00 NR -19.0518 140.365 main 0 0 __________P___ -1 -19.0518 140.365 7 11 100
1921008S12139 1921 1 SP EA NOT_NAMED 1921-01-13 21:00:00 NR -19.1373 140.936 main 0 0 __________P___ -1 -19.1373 140.936 7 11 98
1921008S12139 1921 1 SP EA NOT_NAMED 1921-01-14 00:00:00 NR -19.2000 141.500 main 0 0 __________O___ -1 -19.2000 141.500 7 11 96
1921008S12139 1921 1 SP EA NOT_NAMED 1921-01-14 03:00:00 NR -19.2505 142.082 main 0 0 __________P___ -1 -19.2505 142.082 7 11 94
1921008S12139 1921 1 SP EA NOT_NAMED 1921-01-14 06:00:00 NR -19.2799 142.653 main 0 0 __________P___ -1 -19.2799 142.653 7 11 92
1921008S12139 1921 1 SP EA NOT_NAMED 1921-01-14 09:00:00 NR -19.2944 143.197 main 0 0 __________P___ -1 -19.2944 143.197 7 10 91
1921008S12139 1921 1 SP EA NOT_NAMED 1921-01-14 12:00:00 NR -19.3000 143.700 main 0 0 __________O___ -1 -19.3000 143.700 7 9 91
1921008S12139 1921 1 SP EA NOT_NAMED 1921-01-14 15:00:00 NR -19.3022 144.150 main 0 0 __________P___ -1 -19.3022 144.150 7 8 90
1921008S12139 1921 1 SP EA NOT_NAMED 1921-01-14 18:00:00 NR -19.3027 144.557 main 0 0 __________P___ -1 -19.3027 144.557 7 7 90
1921008S12139 1921 1 SP EA NOT_NAMED 1921-01-14 21:00:00 NR -19.3018 144.936 main 0 0 __________P___ -1 -19.3018 144.936 7 7 90
1921008S12139 1921 1 SP EA NOT_NAMED 1921-01-15 00:00:00 NR -19.3000 145.300 main 0 __________O___ -1 -19.3000 145.300 7 7 90

デジタル台風データ・検索

IBTrACS Databaseについて

本データベースは、米国NOAAが公開する1842年以降の世界の熱帯低気圧のベストトラックデータアーカイブInternational Best Track Archive for Climate Stewardship (IBTrACS)を、ウェブで閲覧しやすい形式に変換したものです。

最終更新日:2021-10-21